Ghent, Kentucky
Current Conditions -  °F | °C
As of 6:12 PM on Sunday 21 Dec 2014 (Local Time) from KIMS Reporting Station
Clear Clear  
Wind Chill: 30°   Ceiling: Unl
Heat Index: 34°   Visibility: 10mi
Dew Point: 27°   Wind: 5mph
Humidity: 75%   Direction: 70°ENE
Pressure: 30.15"   Gusts: NA
Location:  38.74°N, 85.06°W
Report Text: KIMS 212312Z AUTO 07004KT 10SM CLR 01/M03 A3015 RMK AO1
Loading
Personal Weather Stations






























Interactive Weather Map New forecast layout! Learn more

10-Day Weather Forecast

Advertisements
Track Severe Weather on mobile